Time;durP1;ratioP1;P1;durP2;ratioP2;P2;SDS_P1;SDS_P2;PMS_P1;PMS_P2;Temp;Humidity;BMP_temperature;BMP_pressure;BME280_temperature;BME280_humidity;BME280_pressure;Samples;Min_cycle;Max_cycle;Signal;HPM_P1;HPM_P2
2023/04/28 00:00:56;;;;;;;0.50;0.50;;;;;;;10.20;72.47;98658.25;6214560;23;20047;-83
2023/04/28 00:03:23;;;;;;;0.50;0.50;;;;;;;10.25;72.59;98665.56;6216446;23;20024;-84
2023/04/28 00:05:52;;;;;;;0.50;0.50;;;;;;;10.27;72.29;98670.72;6199410;23;20017;-83
2023/04/28 00:08:21;;;;;;;0.50;0.50;;;;;;;10.30;72.42;98662.16;6226756;23;20047;-82
2023/04/28 00:10:48;;;;;;;0.50;0.50;;;;;;;10.34;72.16;98663.28;6222746;23;20029;-83
2023/04/28 00:13:15;;;;;;;0.40;0.40;;;;;;;10.32;72.04;98655.44;6218285;23;20024;-83
2023/04/28 00:15:42;;;;;;;0.50;0.50;;;;;;;10.34;72.04;98652.50;6213283;23;20024;-82
2023/04/28 00:18:09;;;;;;;0.50;0.50;;;;;;;10.39;71.96;98650.69;6186473;23;20021;-84
2023/04/28 00:20:36;;;;;;;0.50;0.50;;;;;;;10.43;71.70;98658.25;6187631;23;20031;-83
2023/04/28 00:23:06;;;;;;;0.50;0.50;;;;;;;10.40;71.67;98649.59;6213962;23;20024;-83
2023/04/28 00:25:33;;;;;;;0.50;0.50;;;;;;;10.46;71.35;98644.25;6187798;23;20016;-81
2023/04/28 00:28:00;;;;;;;0.50;0.50;;;;;;;10.49;71.25;98639.19;6216650;23;20032;-83
2023/04/28 00:30:33;;;;;;;0.50;0.50;;;;;;;10.54;70.86;98644.66;6217035;23;20032;-84
2023/04/28 00:33:00;;;;;;;0.50;0.50;;;;;;;10.59;70.98;98633.91;6187272;23;20029;-84
2023/04/28 00:35:27;;;;;;;0.50;0.50;;;;;;;10.59;70.81;98644.69;6187316;23;20020;-85
2023/04/28 00:37:54;;;;;;;0.50;0.50;;;;;;;10.63;70.71;98639.59;6213131;23;20460;-83
2023/04/28 00:40:21;;;;;;;0.50;0.50;;;;;;;10.65;70.60;98632.06;6213531;23;20021;-84
2023/04/28 00:42:49;;;;;;;0.40;0.40;;;;;;;10.62;70.57;98632.59;6186805;23;20360;-84
2023/04/28 00:45:18;;;;;;;0.50;0.50;;;;;;;10.65;70.50;98639.34;6214126;23;20020;-84
2023/04/28 00:47:45;;;;;;;0.40;0.40;;;;;;;10.66;70.51;98638.28;6187274;23;20460;-84
2023/04/28 00:50:12;;;;;;;0.40;0.40;;;;;;;10.69;70.56;98646.69;6213407;23;20017;-84
2023/04/28 00:52:40;;;;;;;0.40;0.40;;;;;;;10.69;70.55;98645.88;6162183;23;20367;-84
2023/04/28 00:55:08;;;;;;;0.47;0.47;;;;;;;10.73;70.19;98649.69;6186446;23;20029;-84
2023/04/28 00:57:54;;;;;;;0.50;0.50;;;;;;;10.72;70.12;98648.88;6212993;23;20040;-85
2023/04/28 01:00:22;;;;;;;0.50;0.50;;;;;;;10.68;70.34;98645.06;6162586;23;20020;-84
2023/04/28 01:02:51;;;;;;;0.50;0.50;;;;;;;10.66;70.48;98640.97;6213133;23;20079;-84
2023/04/28 01:05:21;;;;;;;0.50;0.50;;;;;;;10.60;70.71;98640.91;6213488;23;20017;-84
2023/04/28 01:10:56;;;;;;;0.40;0.40;;;;;;;10.60;70.55;98648.22;6164374;23;20119;-85
2023/04/28 01:13:41;;;;;;;0.50;0.50;;;;;;;10.61;70.61;98652.56;6213595;23;20025;-85
2023/04/28 01:16:09;;;;;;;0.40;0.40;;;;;;;10.51;70.88;98637.06;6212737;23;20027;-85
2023/04/28 01:18:55;;;;;;;0.40;0.40;;;;;;;10.58;71.06;98653.88;6186998;23;20027;-85
2023/04/28 01:21:41;;;;;;;0.40;0.40;;;;;;;10.55;71.16;98657.06;6211695;23;20108;-84
2023/04/28 01:24:17;;;;;;;0.40;0.40;;;;;;;10.51;70.84;98650.56;6211592;23;20067;-83
2023/04/28 01:27:22;;;;;;;0.40;0.40;;;;;;;10.50;71.29;98651.59;6214980;23;20020;-85
2023/04/28 01:29:52;;;;;;;0.50;0.50;;;;;;;10.48;71.40;98650.22;6214419;23;20027;-84
2023/04/28 01:32:19;;;;;;;0.40;0.40;;;;;;;10.49;71.63;98665.38;6213502;23;20063;-84
2023/04/28 01:34:46;;;;;;;0.50;0.50;;;;;;;10.51;71.54;98665.94;6215083;23;20027;-84
2023/04/28 01:37:14;;;;;;;0.40;0.40;;;;;;;10.50;71.96;98654.31;6213769;23;20027;-85
2023/04/28 01:40:18;;;;;;;0.50;0.50;;;;;;;10.55;71.96;98654.34;6214825;23;20028;-85
2023/04/28 01:42:45;;;;;;;0.40;0.40;;;;;;;10.52;72.08;98654.88;6213273;23;20020;-84
2023/04/28 01:45:12;;;;;;;0.50;0.50;;;;;;;10.46;72.02;98644.25;6213024;23;20460;-84
2023/04/28 01:48:05;;;;;;;0.50;0.50;;;;;;;10.48;72.23;98651.06;6188930;23;20086;-83
2023/04/28 01:50:36;;;;;;;0.50;0.50;;;;;;;10.47;72.32;98643.22;6215186;23;20025;-85
2023/04/28 01:53:06;;;;;;;0.43;0.43;;;;;;;10.49;72.17;98635.69;6213018;23;20067;-81
2023/04/28 01:55:38;;;;;;;0.50;0.50;;;;;;;10.48;72.38;98634.03;6216726;23;20025;-84
2023/04/28 02:01:11;;;;;;;0.50;0.50;;;;;;;10.43;72.73;98625.88;6218834;23;20041;-84
2023/04/28 02:03:38;;;;;;;0.50;0.50;;;;;;;10.49;72.55;98639.19;6215178;23;20140;-84
2023/04/28 02:06:09;;;;;;;0.50;0.50;;;;;;;10.52;72.79;98648.66;6212532;23;20020;-84
2023/04/28 02:08:54;;;;;;;0.50;0.50;;;;;;;10.49;72.76;98639.19;6214525;23;20140;-83
2023/04/28 02:11:21;;;;;;;0.40;0.40;;;;;;;10.47;72.94;98635.94;6213087;23;20029;-85
2023/04/28 02:13:56;;;;;;;0.50;0.50;;;;;;;10.49;73.21;98643.78;6212550;23;20024;-84
2023/04/28 02:16:43;;;;;;;0.50;0.50;;;;;;;10.47;73.31;98645.91;6212786;23;20021;-84
2023/04/28 02:19:14;;;;;;;0.50;0.50;;;;;;;10.46;73.64;98649.66;6213300;23;20027;-84
2023/04/28 02:22:00;;;;;;;0.40;0.40;;;;;;;10.50;73.50;98654.31;6213037;23;20024;-83
2023/04/28 02:27:37;;;;;;;0.50;0.50;;;;;;;10.51;73.40;98660.53;6214464;23;20483;-84
2023/04/28 02:30:05;;;;;;;0.50;0.50;;;;;;;10.48;73.64;98663.72;6213990;23;20028;-83
2023/04/28 02:32:33;;;;;;;0.50;0.50;;;;;;;10.47;73.56;98662.91;6214092;23;20476;-84
2023/04/28 02:35:03;;;;;;;0.47;0.47;;;;;;;10.46;73.84;98661.28;6213537;23;20025;-84
2023/04/28 02:37:30;;;;;;;0.50;0.50;;;;;;;10.48;73.82;98664.56;6212592;23;20032;-83
2023/04/28 02:42:43;;;;;;;0.50;0.50;;;;;;;10.54;73.82;98668.94;6214219;23;20103;-84
2023/04/28 02:45:10;;;;;;;0.50;0.50;;;;;;;10.54;73.93;98670.81;6213991;23;20075;-85
2023/04/28 02:50:42;;;;;;;0.50;0.50;;;;;;;10.50;74.58;98658.88;6212247;23;20027;-84
2023/04/28 02:53:11;;;;;;;0.50;0.50;;;;;;;10.52;74.56;98667.56;6212413;23;20402;-84
2023/04/28 02:55:38;;;;;;;0.40;0.40;;;;;;;10.55;74.69;98664.34;6211976;23;20029;-84
2023/04/28 02:58:06;;;;;;;0.50;0.50;;;;;;;10.63;74.42;98661.19;6212228;23;20026;-84
2023/04/28 03:00:35;;;;;;;0.50;0.50;;;;;;;10.63;74.30;98658.50;6213668;23;20025;-85
2023/04/28 03:03:03;;;;;;;0.50;0.50;;;;;;;10.62;74.30;98664.97;6212988;23;20032;-83
2023/04/28 03:05:30;;;;;;;0.50;0.50;;;;;;;10.62;74.51;98673.06;6213861;23;20364;-83
2023/04/28 03:07:58;;;;;;;0.50;0.50;;;;;;;10.67;74.06;98678.53;6211898;23;20024;-84
2023/04/28 03:10:25;;;;;;;0.50;0.50;;;;;;;10.68;74.21;98680.13;6211968;23;20104;-84
2023/04/28 03:12:52;;;;;;;0.40;0.40;;;;;;;10.69;74.13;98676.38;6186951;23;20021;-83
2023/04/28 03:15:20;;;;;;;0.50;0.50;;;;;;;10.71;73.98;98668.84;6213461;23;20025;-84
2023/04/28 03:17:47;;;;;;;0.50;0.50;;;;;;;10.75;73.98;98680.75;6187172;23;20467;-84
2023/04/28 03:20:18;;;;;;;0.50;0.50;;;;;;;10.79;73.86;98681.09;6213531;23;20108;-83
2023/04/28 03:22:45;;;;;;;0.50;0.50;;;;;;;10.81;73.81;98677.06;6213408;23;20024;-84
2023/04/28 03:25:14;;;;;;;0.50;0.50;;;;;;;10.84;73.83;98679.25;6186709;23;20044;-85
2023/04/28 03:27:47;;;;;;;0.50;0.50;;;;;;;10.91;73.72;98681.72;6187079;23;20047;-84
2023/04/28 03:30:15;;;;;;;0.50;0.50;;;;;;;11.02;73.33;98685.38;6186683;23;20135;-83
2023/04/28 03:32:42;;;;;;;0.50;0.50;;;;;;;11.09;73.00;98683.28;6162458;23;20028;-84
2023/04/28 03:35:13;;;;;;;0.50;0.50;;;;;;;11.17;72.72;98699.03;6186347;23;20031;-83
2023/04/28 03:37:40;;;;;;;0.50;0.50;;;;;;;11.24;72.70;98702.34;6186752;23;20070;-84
2023/04/28 03:40:08;;;;;;;0.50;0.50;;;;;;;11.24;72.53;98696.09;6186835;23;20822;-86
2023/04/28 03:43:05;;;;;;;0.50;0.50;;;;;;;11.32;72.34;98703.75;6180619;23;20044;-86
2023/04/28 03:45:36;;;;;;;0.50;0.50;;;;;;;11.33;71.90;98697.25;6156021;23;20108;-83
2023/04/28 03:48:04;;;;;;;0.50;0.50;;;;;;;11.37;71.96;98705.66;6165682;23;20068;-84
2023/04/28 03:50:31;;;;;;;0.50;0.50;;;;;;;11.34;72.00;98698.06;6194872;23;20016;-87
2023/04/28 03:53:01;;;;;;;0.50;0.50;;;;;;;11.38;72.07;98707.31;6159071;23;20028;-82
2023/04/28 03:55:29;;;;;;;0.50;0.50;;;;;;;11.38;72.10;98715.41;6180043;23;20017;-86
2023/04/28 03:57:56;;;;;;;0.50;0.50;;;;;;;11.37;72.19;98713.75;6179777;23;20045;-84
2023/04/28 04:00:23;;;;;;;0.50;0.50;;;;;;;11.43;71.92;98715.47;6155593;23;20021;-84
2023/04/28 04:02:52;;;;;;;0.43;0.43;;;;;;;11.42;72.38;98719.22;6152379;23;20021;-84
2023/04/28 04:05:23;;;;;;;0.50;0.50;;;;;;;11.40;72.61;98714.09;6152020;23;20127;-84
2023/04/28 04:07:51;;;;;;;0.50;0.50;;;;;;;11.42;72.64;98709.25;6150600;23;20025;-85
2023/04/28 04:10:19;;;;;;;0.50;0.50;;;;;;;11.46;72.92;98723.03;6176405;23;20024;-84
2023/04/28 04:12:48;;;;;;;0.50;0.50;;;;;;;11.44;72.87;98719.78;6152202;23;20029;-84
2023/04/28 04:15:16;;;;;;;0.50;0.50;;;;;;;11.39;73.42;98714.31;6177567;23;20024;-86
2023/04/28 04:18:03;;;;;;;0.40;0.40;;;;;;;11.39;73.90;98722.44;6152591;23;20032;-85
2023/04/28 04:20:48;;;;;;;0.50;0.50;;;;;;;11.34;74.12;98727.78;6184534;23;20028;-83
2023/04/28 04:23:16;;;;;;;0.45;0.45;;;;;;;11.31;74.66;98731.00;6158444;23;20016;-87
2023/04/28 04:28:28;;;;;;;0.50;0.50;;;;;;;11.27;75.25;98723.41;6184810;23;20021;-84
2023/04/28 04:30:59;;;;;;;0.50;0.50;;;;;;;11.30;75.24;98716.69;6164635;23;20044;-83
2023/04/28 04:33:28;;;;;;;0.40;0.40;;;;;;;11.33;75.38;98728.88;6186244;23;20032;-83
2023/04/28 04:35:56;;;;;;;0.50;0.50;;;;;;;11.40;75.30;98733.00;6187497;23;20033;-83
2023/04/28 04:38:23;;;;;;;0.50;0.50;;;;;;;11.42;75.38;98732.72;6163303;23;20027;-83
2023/04/28 04:40:50;;;;;;;0.50;0.50;;;;;;;11.49;75.44;98738.72;6185246;23;20115;-84
2023/04/28 04:43:18;;;;;;;0.50;0.50;;;;;;;11.49;75.52;98744.13;6187044;23;20162;-83
2023/04/28 04:45:48;;;;;;;0.50;0.50;;;;;;;11.46;75.95;98750.88;6187352;23;20426;-84
2023/04/28 04:48:18;;;;;;;0.50;0.50;;;;;;;11.37;76.40;98740.78;6187637;23;20047;-83
2023/04/28 04:50:45;;;;;;;0.50;0.50;;;;;;;11.41;76.51;98742.72;6213736;23;20035;-84
2023/04/28 04:53:13;;;;;;;0.45;0.45;;;;;;;11.45;76.57;98740.34;6186349;23;20020;-84
2023/04/28 04:55:43;;;;;;;0.50;0.50;;;;;;;11.42;76.80;98746.22;6187617;23;20047;-83
2023/04/28 04:58:10;;;;;;;0.50;0.50;;;;;;;11.42;77.11;98738.13;6186583;23;20052;-84
2023/04/28 05:01:13;;;;;;;0.50;0.50;;;;;;;11.38;77.39;98742.44;6091759;23;20033;-85
2023/04/28 05:03:41;;;;;;;0.50;0.50;;;;;;;11.34;77.89;98744.81;6092138;23;20056;-84
2023/04/28 05:06:27;;;;;;;0.50;0.50;;;;;;;11.41;77.94;98741.91;6092889;23;20046;-84
2023/04/28 05:08:57;;;;;;;0.50;0.50;;;;;;;11.59;77.66;98748.81;6067823;23;20034;-85
2023/04/28 05:11:25;;;;;;;0.50;0.50;;;;;;;11.79;77.21;98740.06;6066479;23;20027;-84
2023/04/28 05:14:04;;;;;;;0.50;0.50;;;;;;;11.91;76.77;98738.84;6090414;23;20105;-84
2023/04/28 05:16:32;;;;;;;0.50;0.50;;;;;;;11.93;76.62;98755.63;6067891;23;20026;-84
2023/04/28 05:19:12;;;;;;;0.45;0.45;;;;;;;11.92;76.78;98739.66;6090980;23;20034;-84
2023/04/28 05:21:43;;;;;;;0.50;0.50;;;;;;;11.92;76.85;98743.19;6091139;23;20108;-84
2023/04/28 05:24:11;;;;;;;0.50;0.50;;;;;;;12.02;76.83;98744.31;6090227;23;20066;-83
2023/04/28 05:26:38;;;;;;;0.45;0.45;;;;;;;12.05;76.72;98738.38;6043409;23;20406;-84
2023/04/28 05:29:08;;;;;;;0.50;0.50;;;;;;;12.09;76.75;98748.44;6067055;23;20022;-84
2023/04/28 05:31:35;;;;;;;0.40;0.40;;;;;;;12.13;76.70;98744.13;6066688;23;20101;-84
2023/04/28 05:34:02;;;;;;;0.43;0.43;;;;;;;12.18;77.00;98748.78;6066578;23;20577;-85
2023/04/28 05:36:30;;;;;;;0.40;0.40;;;;;;;12.24;77.42;98744.19;6211491;23;20024;-84
2023/04/28 05:39:07;;;;;;;0.50;0.50;;;;;;;12.32;76.75;98757.22;6182407;23;20399;-84
2023/04/28 05:41:37;;;;;;;0.40;0.40;;;;;;;12.33;76.03;98756.13;6180684;23;20112;-84
2023/04/28 05:44:06;;;;;;;0.40;0.40;;;;;;;12.30;75.77;98760.19;6207779;23;20020;-84
2023/04/28 05:46:33;;;;;;;0.50;0.50;;;;;;;12.36;75.46;98752.94;6181254;23;20044;-84
2023/04/28 05:49:02;;;;;;;0.50;0.50;;;;;;;12.42;75.61;98762.69;6181660;23;20599;-84
2023/04/28 05:51:35;;;;;;;0.50;0.50;;;;;;;12.56;75.30;98746.81;6181236;23;20031;-85
2023/04/28 05:54:03;;;;;;;0.50;0.50;;;;;;;12.70;74.67;98747.94;6181917;23;20079;-85
2023/04/28 05:56:36;;;;;;;0.50;0.50;;;;;;;12.92;73.95;98750.47;6181317;23;20625;-84
2023/04/28 05:59:03;;;;;;;0.50;0.50;;;;;;;13.10;72.97;98745.66;6180861;23;20104;-84
2023/04/28 06:01:32;;;;;;;0.50;0.50;;;;;;;13.34;72.21;98754.09;6181132;23;20028;-83
2023/04/28 06:04:02;;;;;;;0.50;0.50;;;;;;;13.57;71.57;98750.91;6179815;23;20364;-84
2023/04/28 06:06:32;;;;;;;0.50;0.50;;;;;;;13.55;71.45;98753.06;6156767;23;20048;-84
2023/04/28 06:09:01;;;;;;;0.50;0.50;;;;;;;13.57;71.19;98750.06;6156654;23;20024;-85
2023/04/28 06:11:28;;;;;;;0.50;0.50;;;;;;;13.63;71.24;98743.56;6208529;23;20352;-84
2023/04/28 06:13:58;;;;;;;0.50;0.50;;;;;;;13.69;71.00;98738.97;6183735;23;20028;-85
2023/04/28 06:16:25;;;;;;;0.50;0.50;;;;;;;13.79;70.73;98730.81;6182901;23;20123;-85
2023/04/28 06:18:53;;;;;;;0.50;0.50;;;;;;;13.98;70.64;98731.09;6158799;23;20036;-84
2023/04/28 06:21:26;;;;;;;0.50;0.50;;;;;;;14.36;69.63;98745.94;6183036;23;20035;-85
2023/04/28 06:23:53;;;;;;;0.50;0.50;;;;;;;14.54;68.85;98741.84;6157413;23;20024;-85
2023/04/28 06:26:20;;;;;;;0.50;0.50;;;;;;;14.66;68.33;98739.63;6181929;23;20021;-86
2023/04/28 06:28:50;;;;;;;0.50;0.50;;;;;;;14.85;68.07;98725.41;6159554;23;20059;-85
2023/04/28 06:31:18;;;;;;;0.50;0.50;;;;;;;14.90;67.53;98733.53;6183350;23;20031;-84
2023/04/28 06:33:47;;;;;;;0.50;0.50;;;;;;;15.06;67.23;98737.78;6182624;23;20103;-84
2023/04/28 06:36:16;;;;;;;0.50;0.50;;;;;;;15.40;66.46;98737.06;6183500;23;20080;-85
2023/04/28 06:38:44;;;;;;;0.50;0.50;;;;;;;15.53;66.13;98730.16;6158743;23;20021;-85
2023/04/28 06:41:14;;;;;;;0.50;0.50;;;;;;;15.57;66.00;98733.94;6183593;23;20439;-84
2023/04/28 06:43:49;;;;;;;0.50;0.50;;;;;;;15.40;65.47;98723.47;6182733;23;20452;-85
2023/04/28 06:46:23;;;;;;;0.50;0.50;;;;;;;15.14;66.97;98739.94;6183304;23;20024;-85
2023/04/28 06:48:52;;;;;;;0.40;0.40;;;;;;;15.13;66.98;98737.50;6156257;23;20020;-85
2023/04/28 06:51:20;;;;;;;0.40;0.40;;;;;;;14.93;67.71;98733.78;6133941;23;20021;-86
2023/04/28 06:53:51;;;;;;;0.40;0.40;;;;;;;14.71;68.58;98727.91;6209651;23;20032;-84
2023/04/28 06:56:22;;;;;;;0.40;0.40;;;;;;;14.82;68.82;98742.28;6135561;23;20078;-86
2023/04/28 06:58:54;;;;;;;0.47;0.47;;;;;;;14.84;68.39;98745.53;6184137;23;20051;-85
2023/04/28 07:01:22;;;;;;;0.40;0.40;;;;;;;14.84;68.56;98734.69;6157881;23;20428;-82
2023/04/28 07:03:51;;;;;;;0.50;0.50;;;;;;;14.79;68.23;98742.84;6181881;23;20031;-84
2023/04/28 07:06:19;;;;;;;0.40;0.40;;;;;;;14.61;68.95;98747.81;6207814;23;20464;-83
2023/04/28 07:08:46;;;;;;;0.40;0.40;;;;;;;14.52;69.42;98744.00;6181791;23;20051;-82
2023/04/28 07:11:14;;;;;;;0.40;0.40;;;;;;;14.41;69.55;98747.84;6208616;23;20456;-83
2023/04/28 07:13:45;;;;;;;0.40;0.40;;;;;;;14.44;69.89;98753.50;6207333;23;20495;-83
2023/04/28 07:16:12;;;;;;;0.40;0.40;;;;;;;14.49;69.48;98747.25;6182580;23;20021;-82
2023/04/28 07:18:39;;;;;;;0.40;0.40;;;;;;;14.38;70.00;98749.19;6182613;23;20025;-84
2023/04/28 07:21:07;;;;;;;0.40;0.40;;;;;;;14.47;70.25;98757.59;6207070;23;20027;-83
2023/04/28 07:23:37;;;;;;;0.43;0.43;;;;;;;14.45;70.32;98770.63;6207905;23;20333;-82
2023/04/28 07:26:23;;;;;;;0.40;0.40;;;;;;;14.32;70.80;98761.94;6202605;23;20025;-83
2023/04/28 07:28:50;;;;;;;0.40;0.40;;;;;;;14.27;71.46;98759.25;6155986;23;20122;-83
2023/04/28 07:31:22;;;;;;;0.40;0.40;;;;;;;14.34;71.40;98764.41;6181061;23;20024;-83
2023/04/28 07:33:49;;;;;;;0.40;0.40;;;;;;;14.31;71.50;98759.53;6155322;23;20039;-82
2023/04/28 07:36:17;;;;;;;0.40;0.40;;;;;;;14.38;71.44;98759.22;6207901;23;20135;-85
2023/04/28 07:39:09;;;;;;;0.40;0.40;;;;;;;14.43;71.43;98742.91;6207521;23;20492;-85
2023/04/28 07:41:37;;;;;;;0.40;0.40;;;;;;;14.52;71.03;98754.84;6179839;23;20024;-85
2023/04/28 07:44:09;;;;;;;0.40;0.40;;;;;;;14.66;70.86;98749.66;6182627;23;20345;-84
2023/04/28 07:46:39;;;;;;;0.40;0.40;;;;;;;14.68;70.86;98753.72;6207253;23;20052;-84
2023/04/28 07:49:08;;;;;;;0.50;0.50;;;;;;;14.64;70.75;98760.81;6207594;23;20487;-84
2023/04/28 07:51:36;;;;;;;0.40;0.40;;;;;;;14.49;71.23;98756.22;6131892;23;20341;-85
2023/04/28 07:54:03;;;;;;;0.40;0.40;;;;;;;14.42;71.89;98766.53;6180840;23;20044;-83
2023/04/28 07:56:30;;;;;;;0.30;0.30;;;;;;;14.24;72.26;98770.66;6158018;23;20021;-84
2023/04/28 07:58:57;;;;;;;0.40;0.40;;;;;;;14.04;72.59;98770.69;6181498;23;20031;-82
2023/04/28 08:01:28;;;;;;;0.40;0.40;;;;;;;13.86;73.92;98769.34;6132117;23;20027;-82
2023/04/28 08:06:44;;;;;;;0.40;0.40;;;;;;;13.42;77.62;98784.22;6182056;23;20024;-82
2023/04/28 08:09:12;;;;;;;0.40;0.40;;;;;;;13.42;78.51;98773.38;6207531;23;20029;-83
2023/04/28 08:11:39;;;;;;;0.40;0.40;;;;;;;13.67;78.68;98777.19;6207189;23;20032;-84
2023/04/28 08:14:06;;;;;;;0.40;0.40;;;;;;;13.74;78.77;98776.94;6207183;23;20024;-82
2023/04/28 08:16:39;;;;;;;0.40;0.40;;;;;;;13.69;79.13;98783.16;6210152;23;20091;-84
2023/04/28 08:19:06;;;;;;;0.40;0.40;;;;;;;13.58;79.39;98781.53;6185347;23;20025;-81
2023/04/28 08:21:34;;;;;;;0.40;0.40;;;;;;;13.67;79.83;98782.59;6210430;23;20025;-83
2023/04/28 08:24:01;;;;;;;0.40;0.40;;;;;;;13.85;79.29;98773.97;6157404;23;20024;-82
2023/04/28 08:26:28;;;;;;;0.50;0.50;;;;;;;13.91;78.54;98776.66;6180836;23;20020;-83
2023/04/28 08:29:06;;;;;;;;;;;;;;;13.97;78.42;98778.28;6209267;23;20138;-84
2023/04/28 08:31:33;;;;;;;0.50;0.50;;;;;;;13.96;78.18;98776.66;6208875;23;20006;-83
2023/04/28 08:34:00;;;;;;;0.45;0.45;;;;;;;14.05;78.33;98775.00;6206432;23;20596;-82
2023/04/28 08:36:32;;;;;;;0.50;0.50;;;;;;;14.12;77.82;98778.28;6180866;23;20055;-83
2023/04/28 08:39:02;;;;;;;0.30;0.30;;;;;;;14.22;77.03;98782.88;6156781;23;20448;-80
2023/04/28 08:41:31;;;;;;;0.45;0.45;;;;;;;14.28;76.81;98777.19;6206509;23;20470;-82
2023/04/28 08:43:59;;;;;;;0.40;0.40;;;;;;;14.42;76.63;98774.69;6180454;23;20017;-81
2023/04/28 08:46:27;;;;;;;0.40;0.40;;;;;;;14.55;76.54;98773.31;6208218;23;20068;-81
2023/04/28 08:49:00;;;;;;;0.40;0.40;;;;;;;14.89;75.96;98780.84;6179418;23;20044;-82
2023/04/28 08:51:33;;;;;;;0.40;0.40;;;;;;;15.11;74.88;98778.53;6206644;23;20031;-82
2023/04/28 08:54:04;;;;;;;0.40;0.40;;;;;;;15.01;75.36;98777.78;6179831;23;20024;-82
2023/04/28 08:56:37;;;;;;;0.40;0.40;;;;;;;14.94;75.26;98781.63;6206768;23;20024;-82
2023/04/28 08:59:05;;;;;;;0.40;0.40;;;;;;;15.04;75.37;98782.66;6206212;23;20020;-83
2023/04/28 09:01:32;;;;;;;0.50;0.50;;;;;;;15.41;75.24;98774.03;6179884;23;20471;-83
2023/04/28 09:04:05;;;;;;;0.73;0.73;;;;;;;16.51;71.70;98773.66;6205916;23;20115;-82
2023/04/28 09:06:37;;;;;;;0.50;0.50;;;;;;;17.17;67.54;98767.44;6207842;23;20100;-83
2023/04/28 09:09:24;;;;;;;0.50;0.50;;;;;;;17.13;67.73;98785.47;6207646;23;20024;-82
2023/04/28 09:11:57;;;;;;;0.47;0.47;;;;;;;16.88;66.99;98779.25;6194437;23;20115;-82
2023/04/28 09:14:26;;;;;;;0.50;0.50;;;;;;;16.51;68.40;98781.81;6206448;23;20086;-82
2023/04/28 09:16:56;;;;;;;0.40;0.40;;;;;;;16.12;69.38;98786.28;6209976;23;20523;-83
2023/04/28 09:19:36;;;;;;;0.38;0.38;;;;;;;15.95;69.11;98781.28;6213043;23;20103;-83
2023/04/28 09:22:04;;;;;;;0.40;0.40;;;;;;;15.91;69.17;98780.22;6210722;23;20031;-82
2023/04/28 09:24:52;;;;;;;0.50;0.50;;;;;;;16.10;67.94;98761.25;6209253;23;20025;-82
2023/04/28 09:27:27;;;;;;;0.50;0.50;;;;;;;16.16;68.20;98781.09;6209735;23;20490;-83
2023/04/28 09:29:57;;;;;;;0.40;0.40;;;;;;;16.26;68.10;98781.00;6184290;23;20609;-83
2023/04/28 09:32:26;;;;;;;0.40;0.40;;;;;;;16.22;67.98;98767.13;6207337;23;20052;-83
2023/04/28 09:34:58;;;;;;;0.40;0.40;;;;;;;16.08;68.23;98768.94;6204530;23;20456;-83
2023/04/28 09:37:29;;;;;;;0.40;0.40;;;;;;;16.02;68.83;98776.31;6210996;23;20024;-84
2023/04/28 09:40:04;;;;;;;0.35;0.35;;;;;;;15.77;69.63;98771.91;6210856;23;20066;-83
2023/04/28 09:42:35;;;;;;;;;;;;;;;15.53;69.84;98769.06;6212395;23;20024;-83
2023/04/28 09:45:10;;;;;;;0.40;0.40;;;;;;;15.41;70.19;98763.16;6209819;23;19965;-81
2023/04/28 09:47:48;;;;;;;0.40;0.40;;;;;;;15.38;70.55;98777.31;6212860;23;20028;-82
2023/04/28 09:50:17;;;;;;;0.50;0.50;;;;;;;15.52;70.05;98774.75;6213164;23;20025;-83
2023/04/28 09:52:56;;;;;;;0.40;0.40;;;;;;;15.56;69.95;98768.47;6213886;23;20460;-83
2023/04/28 09:55:24;;;;;;;0.50;0.50;;;;;;;15.49;69.75;98773.41;6214133;23;20025;-84
2023/04/28 09:57:54;;;;;;;0.50;0.50;;;;;;;15.69;69.83;98780.66;6211747;23;20017;-83
2023/04/28 10:00:21;;;;;;;0.50;0.50;;;;;;;15.86;68.77;98777.53;6214734;23;20029;-82
2023/04/28 10:02:50;;;;;;;0.60;0.60;;;;;;;16.40;66.32;98770.22;6213776;23;20052;-84
2023/04/28 10:05:18;;;;;;;0.40;0.40;;;;;;;16.44;66.08;98782.19;6214018;23;20032;-82
2023/04/28 10:07:46;;;;;;;0.40;0.40;;;;;;;16.17;67.01;98785.44;6213728;23;20020;-82
2023/04/28 10:10:13;;;;;;;0.40;0.40;;;;;;;16.01;68.10;98787.50;6213824;23;20071;-83
2023/04/28 10:12:42;;;;;;;0.40;0.40;;;;;;;15.98;68.16;98785.34;6213307;23;20107;-83
2023/04/28 10:15:10;;;;;;;0.40;0.40;;;;;;;15.76;68.46;98783.88;6187099;23;20833;-83
2023/04/28 10:17:38;;;;;;;0.30;0.30;;;;;;;15.39;70.03;98806.13;6212375;23;20400;-83
2023/04/28 10:20:05;;;;;;;0.38;0.38;;;;;;;14.80;70.87;98793.34;6213255;23;20047;-83
2023/04/28 10:22:57;;;;;;;0.30;0.30;;;;;;;14.11;72.76;98795.66;6213850;23;20024;-83
2023/04/28 10:25:31;;;;;;;0.40;0.40;;;;;;;13.81;74.47;98805.41;6212230;23;20400;-81
2023/04/28 10:27:59;;;;;;;0.40;0.40;;;;;;;13.72;75.59;98804.31;6212825;23;20024;-83
2023/04/28 10:30:33;;;;;;;0.40;0.40;;;;;;;13.72;76.21;98800.78;6189717;23;20051;-83
2023/04/28 10:33:13;;;;;;;;;;;;;;;13.66;76.19;98791.84;6213163;23;20028;-82
2023/04/28 10:35:46;;;;;;;0.40;0.40;;;;;;;13.51;77.09;98800.75;6213706;23;19920;-82
2023/04/28 10:38:20;;;;;;;0.40;0.40;;;;;;;13.47;77.94;98805.13;6211479;23;20025;-82
2023/04/28 10:40:52;;;;;;;0.40;0.40;;;;;;;13.28;78.51;98810.19;6212961;23;20099;-83
2023/04/28 10:43:31;;;;;;;0.40;0.40;;;;;;;13.20;79.39;98813.41;6212127;23;20024;-83
2023/04/28 10:46:05;;;;;;;0.40;0.40;;;;;;;13.07;80.35;98817.44;6210795;23;20036;-83
2023/04/28 10:48:59;;;;;;;0.40;0.40;;;;;;;12.70;82.58;98828.34;6212045;23;20016;-83
2023/04/28 10:51:27;;;;;;;0.40;0.40;;;;;;;12.41;85.19;98822.50;6212064;23;20051;-82
2023/04/28 10:53:58;;;;;;;0.40;0.40;;;;;;;12.11;87.89;98823.91;6211216;23;20472;-83
2023/04/28 10:56:26;;;;;;;0.47;0.47;;;;;;;11.97;89.73;98825.41;6213289;23;20107;-83
2023/04/28 10:58:54;;;;;;;0.50;0.50;;;;;;;11.88;91.13;98816.97;6212081;23;20031;-82
2023/04/28 11:01:30;;;;;;;0.50;0.50;;;;;;;11.88;92.00;98817.78;6210942;23;20111;-83
2023/04/28 11:04:15;;;;;;;0.50;0.50;;;;;;;11.82;92.42;98807.94;6213493;23;20032;-83
2023/04/28 11:06:44;;;;;;;0.50;0.50;;;;;;;11.93;92.19;98811.59;6213471;23;20023;-83
2023/04/28 11:09:14;;;;;;;0.50;0.50;;;;;;;12.02;91.78;98811.94;6187278;23;20021;-83
2023/04/28 11:12:04;;;;;;;0.50;0.50;;;;;;;12.20;91.54;98816.13;6211345;23;20031;-83
2023/04/28 11:14:34;;;;;;;0.50;0.50;;;;;;;12.65;90.15;98815.59;6213535;23;20079;-83
2023/04/28 11:17:04;;;;;;;0.70;0.70;;;;;;;13.58;87.50;98814.88;6211114;23;20027;-83
2023/04/28 11:19:33;;;;;;;0.60;0.60;;;;;;;15.03;82.16;98819.06;6213210;23;20025;-83
2023/04/28 11:22:10;;;;;;;0.60;0.60;;;;;;;15.76;78.47;98821.16;6212669;23;20021;-83
2023/04/28 11:24:37;;;;;;;0.50;0.50;;;;;;;15.59;74.96;98807.91;6213292;23;20111;-83
2023/04/28 11:27:05;;;;;;;0.40;0.40;;;;;;;15.24;75.90;98825.22;6186611;23;20460;-83
2023/04/28 11:29:42;;;;;;;0.40;0.40;;;;;;;14.82;76.12;98824.59;6213209;23;20050;-82
2023/04/28 11:32:09;;;;;;;0.40;0.40;;;;;;;14.33;78.18;98827.94;6212527;23;20048;-82
2023/04/28 11:34:39;;;;;;;0.40;0.40;;;;;;;14.27;78.70;98832.53;6213053;23;20360;-83
2023/04/28 11:37:16;;;;;;;0.40;0.40;;;;;;;14.22;79.22;98824.41;6210827;23;20020;-83
2023/04/28 11:39:44;;;;;;;0.40;0.40;;;;;;;14.29;78.85;98827.66;6212033;23;20047;-84
2023/04/28 11:42:12;;;;;;;0.40;0.40;;;;;;;14.25;78.62;98815.69;6216705;23;20074;-83
2023/04/28 11:44:39;;;;;;;0.40;0.40;;;;;;;14.36;78.21;98816.53;6213544;23;20298;-83
2023/04/28 11:47:09;;;;;;;0.40;0.40;;;;;;;14.42;77.66;98803.75;6212647;23;20352;-83
2023/04/28 11:49:45;;;;;;;0.40;0.40;;;;;;;14.42;77.18;98815.41;6211731;23;20484;-82
2023/04/28 11:52:12;;;;;;;0.40;0.40;;;;;;;14.23;77.65;98807.03;6212095;23;20403;-82
2023/04/28 11:54:42;;;;;;;0.30;0.30;;;;;;;14.19;78.09;98805.13;6210657;23;20031;-83
2023/04/28 11:57:20;;;;;;;0.30;0.30;;;;;;;14.05;78.58;98800.28;6214420;23;20021;-82
2023/04/28 11:59:48;;;;;;;0.40;0.40;;;;;;;13.81;78.63;98820.88;6212434;23;20020;-82
2023/04/28 12:02:26;;;;;;;0.30;0.30;;;;;;;13.31;80.14;98822.41;6210459;23;20021;-82
2023/04/28 12:05:05;;;;;;;0.45;0.45;;;;;;;12.75;82.70;98814.84;6211323;23;20024;-82
2023/04/28 12:07:41;;;;;;;0.40;0.40;;;;;;;12.44;84.88;98809.25;6211514;23;20027;-82
2023/04/28 12:10:17;;;;;;;0.40;0.40;;;;;;;12.34;86.21;98809.19;6212163;23;20035;-82
2023/04/28 12:12:46;;;;;;;0.40;0.40;;;;;;;12.23;86.86;98804.78;6212309;23;20351;-83